Time;durP1;ratioP1;P1;durP2;ratioP2;P2;SDS_P1;SDS_P2;PMS_P1;PMS_P2;Temp;Humidity;BMP_temperature;BMP_pressure;BME280_temperature;BME280_humidity;BME280_pressure;Samples;Min_cycle;Max_cycle;Signal;HPM_P1;HPM_P2
2023/06/15 00:01:23;;;;;;;;;;;;;;;23.28;62.48;99413.00;5092411;28;20245;-36
2023/06/15 00:03:48;;;;;;;;;;;;;;;23.48;61.99;99409.19;5091150;28;19912;-36
2023/06/15 00:06:14;;;;;;;;;;;;;;;23.34;62.07;99405.59;5092482;28;19912;-37
2023/06/15 00:08:40;;;;;;;;;;;;;;;23.29;62.34;99406.50;5092397;28;19912;-36
2023/06/15 00:11:05;;;;;;;;;;;;;;;23.19;62.87;99412.09;5092344;28;20290;-37
2023/06/15 00:13:31;;;;;;;;;;;;;;;23.18;63.10;99407.75;5092314;28;19916;-37
2023/06/15 00:15:56;;;;;;;;;;;;;;;23.11;63.26;99410.84;5092134;28;19920;-37
2023/06/15 00:18:21;;;;;;;;;;;;;;;23.29;62.47;99413.84;5092310;28;20069;-36
2023/06/15 00:20:47;;;;;;;;;;;;;;;23.30;62.62;99418.94;5092262;28;19965;-36
2023/06/15 00:23:13;;;;;;;;;;;;;;;23.51;62.04;99413.19;5092250;28;19999;-36
2023/06/15 00:25:38;;;;;;;;;;;;;;;23.48;62.28;99411.09;5092262;28;20061;-36
2023/06/15 00:28:03;;;;;;;;;;;;;;;23.62;61.89;99417.34;5092025;28;20002;-36
2023/06/15 00:30:29;;;;;;;;;;;;;;;23.67;61.49;99411.84;5091541;28;19999;-36
2023/06/15 00:32:54;;;;;;;;;;;;;;;23.62;61.50;99409.22;5092019;28;20054;-36
2023/06/15 00:35:20;;;;;;;;;;;;;;;23.09;63.18;99413.03;5091987;28;20384;-36
2023/06/15 00:37:46;;;;;;;;;;;;;;;22.65;65.17;99409.53;5091844;28;19923;-36
2023/06/15 00:40:11;;;;;;;;;;;;;;;23.06;63.72;99410.13;5091862;28;19912;-37
2023/06/15 00:42:37;;;;;;;;;;;;;;;22.83;63.75;99409.88;5091513;28;19982;-36
2023/06/15 00:45:03;;;;;;;;;;;;;;;22.83;64.30;99418.81;5091719;28;20000;-36
2023/06/15 00:47:29;;;;;;;;;;;;;;;23.10;63.34;99425.50;5091790;28;19927;-36
2023/06/15 00:49:54;;;;;;;;;;;;;;;23.27;63.08;99418.75;5091847;28;19913;-36
2023/06/15 00:52:21;;;;;;;;;;;;;;;23.36;62.43;99420.50;5091468;28;19912;-36
2023/06/15 00:54:47;;;;;;;;;;;;;;;23.54;61.85;99420.75;5091302;28;19955;-36
2023/06/15 00:57:14;;;;;;;;;;;;;;;23.61;61.73;99418.47;5091530;28;19934;-37
2023/06/15 00:59:40;;;;;;;;;;;;;;;23.58;61.56;99414.41;5091249;28;20356;-36
2023/06/15 01:02:05;;;;;;;;;;;;;;;23.32;62.04;99415.94;5091370;28;20047;-36
2023/06/15 01:04:31;;;;;;;;;;;;;;;22.80;63.70;99413.97;5091358;28;19912;-36
2023/06/15 01:07:01;;;;;;;;;;;;;;;22.58;64.72;99417.25;5091196;28;20342;-36
2023/06/15 01:09:28;;;;;;;;;;;;;;;22.06;67.34;99408.06;5091452;28;19912;-37
2023/06/15 01:11:55;;;;;;;;;;;;;;;22.11;67.30;99415.34;5091488;28;19912;-37
2023/06/15 01:14:24;;;;;;;;;;;;;;;22.17;67.35;99416.91;5091154;28;20268;-37
2023/06/15 01:16:52;;;;;;;;;;;;;;;22.28;66.65;99412.22;5091387;28;19995;-36
2023/06/15 01:19:39;;;;;;;;;;;;;;;22.20;66.91;99421.72;5091205;28;20386;-38
2023/06/15 01:22:11;;;;;;;;;;;;;;;22.36;66.75;99419.69;5091189;28;19912;-36
2023/06/15 01:24:38;;;;;;;;;;;;;;;22.48;66.32;99406.53;5091152;28;19923;-37
2023/06/15 01:27:04;;;;;;;;;;;;;;;22.58;65.65;99414.53;5090985;28;19912;-37
2023/06/15 01:29:32;;;;;;;;;;;;;;;22.48;66.17;99406.53;5091104;28;19928;-37
2023/06/15 01:31:58;;;;;;;;;;;;;;;22.51;65.70;99402.44;5090791;28;20399;-37
2023/06/15 01:34:23;;;;;;;;;;;;;;;22.08;67.91;99402.38;5090838;28;19941;-37
2023/06/15 01:36:50;;;;;;;;;;;;;;;21.73;69.04;99397.03;5090827;28;19912;-37
2023/06/15 01:39:15;;;;;;;;;;;;;;;21.96;68.15;99403.56;5090959;28;19939;-37
2023/06/15 01:41:41;;;;;;;;;;;;;;;21.98;67.81;99403.28;5090738;28;20403;-38
2023/06/15 01:44:06;;;;;;;;;;;;;;;21.58;69.41;99394.47;5090637;28;19999;-38
2023/06/15 01:46:32;;;;;;;;;;;;;;;21.80;68.52;99393.97;5090837;28;19920;-38
2023/06/15 01:48:58;;;;;;;;;;;;;;;21.43;69.84;99395.38;5090860;28;19916;-36
2023/06/15 01:51:24;;;;;;;;;;;;;;;21.69;69.11;99389.78;5090732;28;20004;-36
2023/06/15 01:53:49;;;;;;;;;;;;;;;21.29;70.29;99387.91;5090392;28;19916;-36
2023/06/15 01:56:15;;;;;;;;;;;;;;;21.35;70.25;99388.69;5090754;28;19912;-36
2023/06/15 01:58:40;;;;;;;;;;;;;;;21.04;70.98;99394.31;5090440;28;20342;-36
2023/06/15 02:01:06;;;;;;;;;;;;;;;21.06;71.03;99391.34;5090477;28;19912;-36
2023/06/15 02:03:31;;;;;;;;;;;;;;;20.96;71.78;99397.63;5090520;28;20273;-36
2023/06/15 02:05:56;;;;;;;;;;;;;;;20.86;72.37;99386.88;5090493;28;19916;-36
2023/06/15 02:08:22;;;;;;;;;;;;;;;21.01;71.53;99394.88;5090621;28;20009;-36
2023/06/15 02:10:47;;;;;;;;;;;;;;;21.25;70.56;99394.97;5090537;28;19966;-37
2023/06/15 02:13:13;;;;;;;;;;;;;;;21.19;70.63;99403.41;5090506;28;20010;-37
2023/06/15 02:15:38;;;;;;;;;;;;;;;20.75;72.08;99394.22;5090386;28;20069;-36
2023/06/15 02:18:12;;;;;;;;;;;;;;;20.74;72.65;99392.63;5090609;28;19919;-36
2023/06/15 02:20:40;;;;;;;;;;;;;;;20.28;74.64;99393.63;5090582;28;20008;-37
2023/06/15 02:23:06;;;;;;;;;;;;;;;20.22;75.29;99391.19;5093885;28;20430;-36
2023/06/15 02:25:31;;;;;;;;;;;;;;;20.19;74.85;99394.47;5094734;28;19912;-37
2023/06/15 02:27:56;;;;;;;;;;;;;;;20.70;73.23;99400.47;5094473;28;19912;-36
2023/06/15 02:30:24;;;;;;;;;;;;;;;20.57;72.57;99397.56;5094654;28;19916;-37
2023/06/15 02:32:52;;;;;;;;;;;;;;;20.43;73.71;99397.34;5094194;28;19928;-37
2023/06/15 02:35:18;;;;;;;;;;;;;;;20.69;72.35;99396.16;5094284;28;19916;-36
2023/06/15 02:37:43;;;;;;;;;;;;;;;20.81;71.62;99395.00;5094157;28;19912;-37
2023/06/15 02:40:09;;;;;;;;;;;;;;;20.64;71.65;99406.19;5093994;28;20298;-37
2023/06/15 02:42:35;;;;;;;;;;;;;;;20.48;72.28;99403.50;5094109;28;19912;-37
2023/06/15 02:45:02;;;;;;;;;;;;;;;20.48;72.27;99394.59;5093913;28;19912;-37
2023/06/15 02:47:28;;;;;;;;;;;;;;;19.71;75.67;99398.31;5093868;28;19934;-38
2023/06/15 02:49:53;;;;;;;;;;;;;;;20.41;73.03;99407.59;5094164;28;19912;-37
2023/06/15 02:52:18;;;;;;;;;;;;;;;20.35;72.74;99406.81;5093765;28;20388;-37
2023/06/15 02:54:43;;;;;;;;;;;;;;;20.03;73.89;99407.19;5094036;28;19919;-36
2023/06/15 02:57:09;;;;;;;;;;;;;;;20.42;72.68;99401.94;5093656;28;20425;-36
2023/06/15 02:59:35;;;;;;;;;;;;;;;20.11;73.95;99407.44;5093535;28;19912;-36
2023/06/15 03:02:01;;;;;;;;;;;;;;;19.95;73.84;99408.56;5093980;28;19912;-37
2023/06/15 03:04:27;;;;;;;;;;;;;;;19.85;75.50;99403.19;5093866;28;19912;-36
2023/06/15 03:06:52;;;;;;;;;;;;;;;19.84;76.09;99409.69;5093754;28;19916;-36
2023/06/15 03:09:18;;;;;;;;;;;;;;;19.76;75.65;99404.81;5093754;28;20309;-36
2023/06/15 03:11:43;;;;;;;;;;;;;;;20.29;73.58;99403.31;5093528;28;19935;-36
2023/06/15 03:14:10;;;;;;;;;;;;;;;20.36;73.14;99413.03;5093434;28;20016;-36
2023/06/15 03:16:39;;;;;;;;;;;;;;;20.90;71.19;99409.56;5093634;28;19912;-36
2023/06/15 03:19:04;;;;;;;;;;;;;;;20.98;70.08;99416.25;5092754;28;19973;-36
2023/06/15 03:21:30;;;;;;;;;;;;;;;20.93;70.83;99421.72;5093466;28;19920;-37
2023/06/15 03:23:55;;;;;;;;;;;;;;;20.83;71.14;99418.00;5093261;28;20304;-37
2023/06/15 03:26:23;;;;;;;;;;;;;;;20.88;71.02;99419.84;5093154;28;19927;-37
2023/06/15 03:28:48;;;;;;;;;;;;;;;20.64;71.62;99422.44;5093415;28;20359;-36
2023/06/15 03:31:17;;;;;;;;;;;;;;;20.57;72.22;99419.97;5092923;28;19916;-36
2023/06/15 03:33:42;;;;;;;;;;;;;;;20.16;73.58;99412.00;5091476;28;19960;-36
2023/06/15 03:36:08;;;;;;;;;;;;;;;20.62;71.69;99417.28;5093162;28;19951;-35
2023/06/15 03:38:33;;;;;;;;;;;;;;;20.51;72.35;99412.97;5093107;28;19919;-37
2023/06/15 03:40:58;;;;;;;;;;;;;;;20.89;71.25;99414.16;5092784;28;19916;-37
2023/06/15 03:43:24;;;;;;;;;;;;;;;21.12;69.64;99413.75;5092877;28;20017;-37
2023/06/15 03:45:49;;;;;;;;;;;;;;;21.06;69.97;99407.56;5092987;28;19977;-36
2023/06/15 03:48:14;;;;;;;;;;;;;;;20.79;71.06;99400.72;5092829;28;19977;-36
2023/06/15 03:50:40;;;;;;;;;;;;;;;21.09;69.81;99402.41;5091838;28;19916;-36
2023/06/15 03:53:05;;;;;;;;;;;;;;;21.13;69.81;99399.13;5092594;28;19916;-36
2023/06/15 03:55:31;;;;;;;;;;;;;;;21.29;68.86;99406.06;5092385;28;19919;-36
2023/06/15 03:57:56;;;;;;;;;;;;;;;21.59;67.83;99401.50;5092431;28;19974;-36
2023/06/15 04:00:22;;;;;;;;;;;;;;;21.70;66.99;99404.91;5092850;28;19999;-37
2023/06/15 04:02:47;;;;;;;;;;;;;;;22.32;65.15;99411.34;5091622;28;20007;-37
2023/06/15 04:05:13;;;;;;;;;;;;;;;22.26;64.26;99409.78;5092156;28;19923;-37
2023/06/15 04:07:39;;;;;;;;;;;;;;;22.18;64.82;99413.09;5092370;28;19927;-37
2023/06/15 04:10:05;;;;;;;;;;;;;;;22.14;64.59;99412.88;5091639;28;20018;-35
2023/06/15 04:12:31;;;;;;;;;;;;;;;22.12;65.08;99415.03;5092439;28;20018;-36
2023/06/15 04:14:56;;;;;;;;;;;;;;;22.31;64.81;99423.25;5092392;28;20005;-37
2023/06/15 04:17:21;;;;;;;;;;;;;;;22.62;63.43;99429.13;5091945;28;19995;-36
2023/06/15 04:19:47;;;;;;;;;;;;;;;23.13;62.14;99437.69;5075591;28;19924;-36
2023/06/15 04:22:12;;;;;;;;;;;;;;;22.68;63.11;99429.06;5072606;28;19912;-36
2023/06/15 04:24:37;;;;;;;;;;;;;;;22.72;62.03;99433.59;5072476;28;19916;-36
2023/06/15 04:27:03;;;;;;;;;;;;;;;22.43;63.45;99437.22;5072437;28;19920;-37
2023/06/15 04:29:30;;;;;;;;;;;;;;;23.18;62.17;99435.69;5072514;28;19921;-37
2023/06/15 04:31:58;;;;;;;;;;;;;;;23.63;60.47;99440.69;5072503;28;19940;-37
2023/06/15 04:34:24;;;;;;;;;;;;;;;23.77;59.66;99440.72;5072369;28;19923;-37
2023/06/15 04:36:50;;;;;;;;;;;;;;;23.71;58.96;99436.50;5072089;28;19999;-35
2023/06/15 04:39:15;;;;;;;;;;;;;;;24.25;58.29;99437.69;5082403;28;19935;-35
2023/06/15 04:41:40;;;;;;;;;;;;;;;23.37;59.96;99445.75;5091857;28;20392;-37
2023/06/15 04:44:06;;;;;;;;;;;;;;;23.22;60.79;99449.47;5091718;28;19935;-38
2023/06/15 04:46:32;;;;;;;;;;;;;;;23.78;58.67;99442.34;5091728;28;19912;-36
2023/06/15 04:48:58;;;;;;;;;;;;;;;23.91;58.00;99446.22;5091814;28;19967;-37
2023/06/15 04:51:23;;;;;;;;;;;;;;;24.17;57.37;99444.63;5091845;28;19916;-38
2023/06/15 04:53:49;;;;;;;;;;;;;;;24.69;56.18;99451.81;5091613;28;19973;-38
2023/06/15 04:56:15;;;;;;;;;;;;;;;25.18;54.34;99456.44;5091610;28;20435;-37
2023/06/15 04:58:40;;;;;;;;;;;;;;;25.13;54.50;99458.47;5092059;28;19947;-36
2023/06/15 05:01:06;;;;;;;;;;;;;;;25.24;54.54;99459.88;5091531;28;20437;-36
2023/06/15 05:03:32;;;;;;;;;;;;;;;25.31;53.86;99457.53;5091411;28;20758;-37
2023/06/15 05:05:58;;;;;;;;;;;;;;;26.04;51.87;99456.56;5091234;28;19965;-37
2023/06/15 05:08:23;;;;;;;;;;;;;;;26.47;50.82;99451.28;5091334;28;19912;-36
2023/06/15 05:10:49;;;;;;;;;;;;;;;26.81;50.49;99463.44;5091063;28;19916;-37
2023/06/15 05:13:15;;;;;;;;;;;;;;;27.29;48.70;99456.25;5091004;28;19920;-37
2023/06/15 05:15:40;;;;;;;;;;;;;;;27.14;48.88;99454.78;5091078;28;20003;-37
2023/06/15 05:18:05;;;;;;;;;;;;;;;27.50;48.10;99459.94;5091593;28;19919;-37
2023/06/15 05:20:31;;;;;;;;;;;;;;;28.15;47.39;99456.44;5089905;28;20440;-36
2023/06/15 05:22:56;;;;;;;;;;;;;;;28.36;46.15;99461.97;5091191;28;19912;-36
2023/06/15 05:25:21;;;;;;;;;;;;;;;28.95;45.00;99451.00;5091141;28;19932;-37
2023/06/15 05:27:47;;;;;;;;;;;;;;;29.33;43.71;99457.50;5089198;28;19912;-36
2023/06/15 05:30:13;;;;;;;;;;;;;;;30.09;42.35;99459.00;5087843;28;19923;-36
2023/06/15 05:32:39;;;;;;;;;;;;;;;29.91;41.88;99466.66;5089273;28;19989;-37
2023/06/15 05:35:07;;;;;;;;;;;;;;;30.20;41.45;99460.16;5089873;28;19951;-42
2023/06/15 05:37:35;;;;;;;;;;;;;;;30.45;41.56;99462.94;5090183;28;21594;-36
2023/06/15 05:40:02;;;;;;;;;;;;;;;30.55;40.81;99462.47;5091352;28;19992;-42
2023/06/15 05:42:27;;;;;;;;;;;;;;;30.39;40.70;99456.09;5091053;28;19912;-41
2023/06/15 05:44:52;;;;;;;;;;;;;;;30.33;41.19;99457.44;5090641;28;20025;-43
2023/06/15 05:47:17;;;;;;;;;;;;;;;30.12;41.80;99452.03;5090766;28;19916;-41
2023/06/15 05:49:43;;;;;;;;;;;;;;;29.88;41.80;99459.09;5091159;28;19934;-41
2023/06/15 05:52:09;;;;;;;;;;;;;;;30.14;41.90;99452.47;5091185;28;19994;-42
2023/06/15 05:54:34;;;;;;;;;;;;;;;30.40;41.82;99454.94;5090766;28;19926;-42
2023/06/15 05:57:01;;;;;;;;;;;;;;;30.71;40.85;99457.09;5090590;28;19955;-42
2023/06/15 05:59:26;;;;;;;;;;;;;;;31.20;39.96;99456.19;5087547;28;20003;-41
2023/06/15 06:01:52;;;;;;;;;;;;;;;31.39;39.98;99458.28;5090140;28;20008;-43
2023/06/15 06:04:17;;;;;;;;;;;;;;;31.03;39.74;99456.47;5090600;28;19916;-42
2023/06/15 06:06:42;;;;;;;;;;;;;;;31.10;39.11;99451.19;5089848;28;19926;-41
2023/06/15 06:09:08;;;;;;;;;;;;;;;31.42;39.49;99457.59;5087023;28;19915;-43
2023/06/15 06:11:33;;;;;;;;;;;;;;;30.98;39.53;99455.56;5086776;28;19920;-42
2023/06/15 06:13:58;;;;;;;;;;;;;;;30.96;39.31;99444.13;5090190;28;19927;-46
2023/06/15 06:16:23;;;;;;;;;;;;;;;31.09;39.59;99449.56;5089230;28;19961;-42
2023/06/15 06:18:49;;;;;;;;;;;;;;;30.66;41.33;99454.56;5089321;28;19911;-43
2023/06/15 06:21:14;;;;;;;;;;;;;;;31.00;39.53;99446.97;5077054;28;20009;-41
2023/06/15 06:23:40;;;;;;;;;;;;;;;31.03;39.94;99448.22;5088673;28;19928;-42
2023/06/15 06:26:05;;;;;;;;;;;;;;;31.41;40.07;99452.44;5088482;28;20383;-43
2023/06/15 06:28:30;;;;;;;;;;;;;;;32.07;38.48;99443.63;5087111;28;19912;-43
2023/06/15 06:30:56;;;;;;;;;;;;;;;32.10;37.96;99447.59;5087505;28;19943;-43
2023/06/15 06:33:21;;;;;;;;;;;;;;;32.07;37.93;99445.59;5088067;28;19920;-36
2023/06/15 06:35:46;;;;;;;;;;;;;;;32.08;37.87;99448.00;5088777;28;19923;-35
2023/06/15 06:38:12;;;;;;;;;;;;;;;31.77;38.10;99448.72;5089677;28;20299;-35
2023/06/15 06:40:37;;;;;;;;;;;;;;;31.64;38.81;99445.25;5089322;28;20339;-37
2023/06/15 06:43:03;;;;;;;;;;;;;;;31.35;39.30;99447.19;5089202;28;20007;-38
2023/06/15 06:45:28;;;;;;;;;;;;;;;31.36;39.58;99443.28;5089235;28;19923;-37
2023/06/15 06:47:53;;;;;;;;;;;;;;;30.69;40.74;99447.56;5090187;28;19912;-38
2023/06/15 06:50:18;;;;;;;;;;;;;;;30.95;40.88;99447.22;5090053;28;19923;-35
2023/06/15 06:52:44;;;;;;;;;;;;;;;30.56;40.82;99444.88;5090608;28;20006;-38
2023/06/15 06:55:09;;;;;;;;;;;;;;;30.12;42.01;99444.63;5090382;28;20428;-37
2023/06/15 06:57:35;;;;;;;;;;;;;;;30.71;41.60;99443.34;5090549;28;19912;-37
2023/06/15 07:00:00;;;;;;;;;;;;;;;31.53;39.47;99447.72;5090533;28;19912;-36
2023/06/15 07:02:25;;;;;;;;;;;;;;;31.61;39.86;99454.22;5090421;28;20035;-39
2023/06/15 07:04:51;;;;;;;;;;;;;;;32.06;38.56;99449.47;5090204;28;19912;-37
2023/06/15 07:07:16;;;;;;;;;;;;;;;32.57;37.94;99446.78;5090014;28;19919;-36
2023/06/15 07:09:41;;;;;;;;;;;;;;;32.11;38.27;99455.50;5094257;28;19912;-37
2023/06/15 07:12:07;;;;;;;;;;;;;;;31.89;38.69;99453.34;5093510;28;20320;-36
2023/06/15 07:14:32;;;;;;;;;;;;;;;32.31;38.25;99445.41;5093048;28;19920;-37
2023/06/15 07:16:58;;;;;;;;;;;;;;;33.02;37.37;99439.91;5093543;28;19912;-37
2023/06/15 07:19:23;;;;;;;;;;;;;;;32.87;37.18;99444.31;5093808;28;20292;-36
2023/06/15 07:21:48;;;;;;;;;;;;;;;33.05;36.56;99436.44;5093511;28;19916;-36
2023/06/15 07:24:13;;;;;;;;;;;;;;;33.07;37.01;99441.56;5093372;28;19933;-38
2023/06/15 07:26:39;;;;;;;;;;;;;;;32.59;37.43;99447.22;5093440;28;19938;-35
2023/06/15 07:29:04;;;;;;;;;;;;;;;32.73;37.44;99444.00;5093590;28;19955;-38
2023/06/15 07:31:30;;;;;;;;;;;;;;;33.25;36.82;99441.97;5093011;28;19975;-37
2023/06/15 07:33:56;;;;;;;;;;;;;;;33.78;36.11;99436.69;5088865;28;19963;-36
2023/06/15 07:36:21;;;;;;;;;;;;;;;33.67;36.03;99441.22;5092930;28;19911;-37
2023/06/15 07:38:47;;;;;;;;;;;;;;;33.34;36.33;99442.53;5092928;28;20433;-36
2023/06/15 07:41:12;;;;;;;;;;;;;;;33.23;36.30;99436.03;5095814;28;20379;-36
2023/06/15 07:43:37;;;;;;;;;;;;;;;32.57;38.46;99444.03;5091254;28;20458;-37
2023/06/15 07:46:02;;;;;;;;;;;;;;;33.07;37.77;99431.34;5092119;28;19916;-36
2023/06/15 07:48:28;;;;;;;;;;;;;;;33.83;36.15;99432.81;5091743;28;19916;-36
2023/06/15 07:50:53;;;;;;;;;;;;;;;33.61;35.81;99426.09;5092182;28;19919;-37
2023/06/15 07:53:18;;;;;;;;;;;;;;;33.83;35.75;99425.34;5092067;28;19916;-36
2023/06/15 07:55:44;;;;;;;;;;;;;;;33.94;36.33;99422.75;5091929;28;19970;-36
2023/06/15 07:58:10;;;;;;;;;;;;;;;34.71;35.58;99423.59;5091880;28;19917;-37
2023/06/15 08:00:35;;;;;;;;;;;;;;;35.60;33.61;99423.03;5091882;28;19997;-36
2023/06/15 08:03:00;;;;;;;;;;;;;;;35.08;34.78;99411.00;5092134;28;19921;-37
2023/06/15 08:05:26;;;;;;;;;;;;;;;35.57;33.43;99419.06;5092296;28;19912;-38
2023/06/15 08:07:52;;;;;;;;;;;;;;;35.07;33.98;99414.94;5092123;28;20026;-35
2023/06/15 08:10:18;;;;;;;;;;;;;;;34.98;34.34;99421.56;5092179;28;19959;-36
2023/06/15 08:12:43;;;;;;;;;;;;;;;35.81;32.51;99420.53;5090386;28;20429;-36
2023/06/15 08:15:08;;;;;;;;;;;;;;;36.17;32.32;99420.81;5089309;28;20377;-35
2023/06/15 08:17:34;;;;;;;;;;;;;;;35.85;32.25;99419.75;5092762;28;19951;-37
2023/06/15 08:20:00;;;;;;;;;;;;;;;35.41;32.67;99419.31;5092598;28;19924;-37
2023/06/15 08:22:27;;;;;;;;;;;;;;;35.52;32.12;99421.38;5093627;28;19924;-37
2023/06/15 08:24:53;;;;;;;;;;;;;;;35.02;33.43;99416.88;5093542;28;19930;-37
2023/06/15 08:27:18;;;;;;;;;;;;;;;35.53;32.07;99417.44;5093953;28;19936;-36
2023/06/15 08:29:43;;;;;;;;;;;;;;;35.44;31.86;99421.31;5097579;28;20367;-35
2023/06/15 08:32:12;;;;;;;;;;;;;;;35.40;32.37;99420.47;5099736;28;20351;-36
2023/06/15 08:34:38;;;;;;;;;;;;;;;34.93;31.83;99413.59;5096619;28;19971;-37
2023/06/15 08:37:04;;;;;;;;;;;;;;;34.98;32.02;99409.72;5093322;28;19947;-36
2023/06/15 08:39:29;;;;;;;;;;;;;;;33.87;33.95;99419.88;5091084;28;19926;-38
2023/06/15 08:41:55;;;;;;;;;;;;;;;34.03;34.60;99419.75;5090748;28;19928;-37
2023/06/15 08:44:20;;;;;;;;;;;;;;;34.01;35.22;99420.13;5096761;28;19916;-36
2023/06/15 08:46:46;;;;;;;;;;;;;;;34.27;34.68;99411.09;5094377;28;19923;-36
2023/06/15 08:49:12;;;;;;;;;;;;;;;33.96;34.85;99417.66;5095691;28;19916;-39
2023/06/15 08:51:38;;;;;;;;;;;;;;;33.97;35.27;99419.25;5089452;28;19939;-36
2023/06/15 08:54:04;;;;;;;;;;;;;;;33.02;36.74;99420.63;5088890;28;19916;-37
2023/06/15 08:56:31;;;;;;;;;;;;;;;33.06;37.10;99407.69;5090001;28;19920;-36
2023/06/15 08:58:56;;;;;;;;;;;;;;;33.30;36.53;99411.31;5091804;28;19919;-36
2023/06/15 09:01:22;;;;;;;;;;;;;;;32.28;38.53;99418.56;5091511;28;19912;-36
2023/06/15 09:03:50;;;;;;;;;;;;;;;32.79;37.76;99405.97;5091905;28;19919;-37
2023/06/15 09:06:15;;;;;;;;;;;;;;;33.39;36.80;99406.38;5091473;28;19912;-37
2023/06/15 09:08:41;;;;;;;;;;;;;;;32.20;38.84;99410.53;5089956;28;19916;-38
2023/06/15 09:11:07;;;;;;;;;;;;;;;32.69;37.92;99410.06;5091058;28;19916;-38
2023/06/15 09:13:33;;;;;;;;;;;;;;;33.53;36.96;99402.28;5087168;28;20387;-36
2023/06/15 09:15:59;;;;;;;;;;;;;;;33.56;36.76;99396.84;5089548;28;20392;-36
2023/06/15 09:18:25;;;;;;;;;;;;;;;34.41;35.31;99395.91;5074762;28;19916;-37
2023/06/15 09:20:50;;;;;;;;;;;;;;;34.97;34.59;99394.28;5070751;28;19912;-36
2023/06/15 09:23:15;;;;;;;;;;;;;;;35.32;33.81;99390.34;5070484;28;19912;-35
2023/06/15 09:25:47;;;;;;;;;;;;;;;35.51;33.74;99392.94;5070781;28;19912;-37
2023/06/15 09:28:13;;;;;;;;;;;;;;;35.94;33.48;99392.53;5070850;28;19960;-37
2023/06/15 09:30:40;;;;;;;;;;;;;;;36.15;33.56;99391.91;5070560;28;19924;-37
2023/06/15 09:33:11;;;;;;;;;;;;;;;36.30;33.21;99390.84;5069821;28;19920;-35
2023/06/15 09:35:36;;;;;;;;;;;;;;;35.99;32.85;99387.44;5069036;28;19943;-37
2023/06/15 09:38:01;;;;;;;;;;;;;;;36.30;32.15;99370.66;5069037;28;19916;-36
2023/06/15 09:40:28;;;;;;;;;;;;;;;36.02;32.91;99377.56;5069851;28;19913;-36
2023/06/15 09:42:55;;;;;;;;;;;;;;;35.92;33.31;99364.44;5069447;28;19917;-37
2023/06/15 09:45:21;;;;;;;;;;;;;;;35.99;32.99;99367.28;5070012;28;20302;-36
2023/06/15 09:47:52;;;;;;;;;;;;;;;35.47;33.79;99360.88;5070326;28;20399;-36
2023/06/15 09:50:17;;;;;;;;;;;;;;;35.94;33.54;99364.84;5070197;28;19912;-35
2023/06/15 09:52:43;;;;;;;;;;;;;;;35.91;33.09;99365.63;5070390;28;19962;-37
2023/06/15 09:55:09;;;;;;;;;;;;;;;35.73;33.89;99357.19;5070588;28;19997;-36
2023/06/15 09:57:35;;;;;;;;;;;;;;;35.58;34.17;99375.59;5070389;28;19908;-37
2023/06/15 10:00:02;;;;;;;;;;;;;;;35.95;33.29;99372.00;5070227;28;19919;-36
2023/06/15 10:02:28;;;;;;;;;;;;;;;36.12;32.50;99367.75;5070583;28;19916;-37
2023/06/15 10:04:54;;;;;;;;;;;;;;;36.10;32.23;99362.59;5070110;28;20354;-37
2023/06/15 10:07:21;;;;;;;;;;;;;;;35.48;32.91;99354.97;5070223;28;19916;-36
2023/06/15 10:09:48;;;;;;;;;;;;;;;35.53;32.78;99351.84;5070161;28;19913;-36
2023/06/15 10:12:16;;;;;;;;;;;;;;;35.56;33.24;99353.06;5070216;28;20320;-37
2023/06/15 10:14:58;;;;;;;;;;;;;;;34.70;34.29;99346.59;5069760;28;19924;-36
2023/06/15 10:17:32;;;;;;;;;;;;;;;34.69;34.47;99345.00;5070224;28;19939;-35
2023/06/15 10:19:58;;;;;;;;;;;;;;;35.15;33.86;99342.78;5069936;28;19916;-36
2023/06/15 10:22:25;;;;;;;;;;;;;;;34.08;36.20;99351.22;5069962;28;20019;-36
2023/06/15 10:24:51;;;;;;;;;;;;;;;33.59;36.90;99349.25;5070251;28;19912;-36
2023/06/15 10:27:17;;;;;;;;;;;;;;;32.75;39.86;99359.06;5070453;28;19920;-36
2023/06/15 10:29:48;;;;;;;;;;;;;;;32.90;40.55;99357.38;5070216;28;19917;-36
2023/06/15 10:32:13;;;;;;;;;;;;;;;32.73;42.67;99364.94;5069842;28;19925;-37
2023/06/15 10:34:54;;;;;;;;;;;;;;;32.17;44.76;99379.00;5069920;28;19928;-36
2023/06/15 10:37:38;;;;;;;;;;;;;;;31.96;45.99;99384.75;5070152;28;19916;-36
2023/06/15 10:40:12;;;;;;;;;;;;;;;30.46;49.84;99378.63;5070262;28;19912;-35
2023/06/15 10:42:44;;;;;;;;;;;;;;;30.07;50.24;99389.97;5070964;28;19913;-36
2023/06/15 10:45:21;;;;;;;;;;;;;;;29.60;50.88;99373.88;5073921;28;19923;-36
2023/06/15 10:47:47;;;;;;;;;;;;;;;29.13;52.75;99385.97;5074123;28;19912;-35
2023/06/15 10:50:14;;;;;;;;;;;;;;;29.28;52.46;99394.69;5073927;28;19912;-36
2023/06/15 10:52:40;;;;;;;;;;;;;;;29.35;52.57;99387.53;5073689;28;20271;-36
2023/06/15 10:55:09;;;;;;;;;;;;;;;29.12;52.77;99391.75;5073695;28;20424;-36
2023/06/15 10:57:34;;;;;;;;;;;;;;;29.58;51.29;99393.41;5072439;28;19913;-36
2023/06/15 11:00:00;;;;;;;;;;;;;;;29.82;51.19;99394.63;5073812;28;19923;-36
2023/06/15 11:02:28;;;;;;;;;;;;;;;29.70;51.26;99394.56;5073714;28;20003;-35
2023/06/15 11:04:59;;;;;;;;;;;;;;;29.55;51.70;99398.75;5074092;28;19927;-36
2023/06/15 11:07:41;;;;;;;;;;;;;;;29.04;53.00;99407.13;5073693;28;19978;-35
2023/06/15 11:10:09;;;;;;;;;;;;;;;28.62;54.73;99410.66;5073967;28;20022;-35
2023/06/15 11:12:38;;;;;;;;;;;;;;;27.51;58.85;99408.81;5073973;28;20007;-36
2023/06/15 11:15:04;;;;;;;;;;;;;;;27.70;59.02;99408.44;5074020;28;19913;-36
2023/06/15 11:17:30;;;;;;;;;;;;;;;27.85;59.18;99413.41;5074048;28;19916;-36
2023/06/15 11:19:56;;;;;;;;;;;;;;;27.29;60.87;99410.63;5074083;28;19913;-36
2023/06/15 11:22:27;;;;;;;;;;;;;;;27.42;59.67;99413.53;5073764;28;19978;-37
2023/06/15 11:24:57;;;;;;;;;;;;;;;27.55;60.30;99409.78;5073730;28;19912;-38
2023/06/15 11:27:22;;;;;;;;;;;;;;;27.63;58.59;99402.69;5073630;28;19942;-36
2023/06/15 11:29:53;;;;;;;;;;;;;;;27.55;57.37;99403.50;5073433;28;19920;-36
2023/06/15 11:32:24;;;;;;;;;;;;;;;27.47;58.20;99392.28;5073292;28;19982;-37
2023/06/15 11:34:54;;;;;;;;;;;;;;;26.79;60.58;99388.44;5073167;28;19924;-37
2023/06/15 11:37:22;;;;;;;;;;;;;;;27.25;59.21;99382.34;5073491;28;19923;-36
2023/06/15 11:39:47;;;;;;;;;;;;;;;27.11;60.63;99378.97;5089314;28;20007;-36
2023/06/15 11:42:13;;;;;;;;;;;;;;;26.57;62.20;99381.97;5073546;28;20016;-37
2023/06/15 11:44:41;;;;;;;;;;;;;;;26.92;61.19;99374.66;5073695;28;19995;-36
2023/06/15 11:47:09;;;;;;;;;;;;;;;27.28;61.59;99375.44;5073393;28;20357;-38
2023/06/15 11:49:35;;;;;;;;;;;;;;;27.15;61.29;99377.22;5073494;28;19912;-38
2023/06/15 11:52:01;;;;;;;;;;;;;;;26.62;62.32;99381.06;5073244;28;19912;-37
2023/06/15 11:54:26;;;;;;;;;;;;;;;26.70;60.04;99374.81;5071987;28;19935;-37
2023/06/15 11:56:51;;;;;;;;;;;;;;;26.89;58.80;99379.94;5073355;28;19913;-38
2023/06/15 11:59:17;;;;;;;;;;;;;;;27.13;59.79;99375.91;5073163;28;20380;-37
2023/06/15 12:01:43;;;;;;;;;;;;;;;27.15;58.52;99371.75;5073144;28;19912;-37
2023/06/15 12:04:10;;;;;;;;;;;;;;;27.52;56.66;99361.25;5073019;28;20022;-37
2023/06/15 12:06:36;;;;;;;;;;;;;;;27.79;57.46;99357.28;5073235;28;19919;-36
2023/06/15 12:09:01;;;;;;;;;;;;;;;27.59;57.24;99352.56;5073143;28;19913;-37
2023/06/15 12:11:27;;;;;;;;;;;;;;;27.85;58.40;99350.53;5072857;28;19947;-37
2023/06/15 12:13:52;;;;;;;;;;;;;;;27.46;58.30;99344.22;5072911;28;19920;-36
2023/06/15 12:16:18;;;;;;;;;;;;;;;27.34;58.93;99344.13;5072987;28;19913;-37
2023/06/15 12:18:43;;;;;;;;;;;;;;;27.50;60.35;99345.19;5072655;28;19919;-36
2023/06/15 12:21:08;;;;;;;;;;;;;;;27.11;60.07;99336.09;5072845;28;19916;-37
2023/06/15 12:23:34;;;;;;;;;;;;;;;26.60;60.60;99328.72;5072555;28;20368;-36
2023/06/15 12:26:00;;;;;;;;;;;;;;;26.90;61.29;99333.22;5072403;28;19952;-36
2023/06/15 12:28:26;;;;;;;;;;;;;;;27.45;58.82;99325.44;5072816;28;19913;-38
2023/06/15 12:30:55;;;;;;;;;;;;;;;27.71;57.55;99316.34;5072979;28;19928;-36
2023/06/15 12:33:39;;;;;;;;;;;;;;;27.49;56.50;99316.28;5071977;28;19920;-35
2023/06/15 12:36:08;;;;;;;;;;;;;;;27.84;56.55;99309.84;5072822;28;19919;-37
2023/06/15 12:38:33;;;;;;;;;;;;;;;28.02;54.30;99305.91;5088975;28;19962;-36
2023/06/15 12:40:59;;;;;;;;;;;;;;;28.31;55.13;99301.56;5092211;28;20476;-44
2023/06/15 12:43:28;;;;;;;;;;;;;;;28.08;56.59;99299.13;5091891;28;19919;-36